High Crest, New Jersey
Current Conditions -  °F | °C
As of 10:53 AM on Sunday 25 Jan 2015 (Local Time) from KCDW Reporting Station
Clear Clear  
Wind Chill: 31°   Ceiling: Unl
Heat Index: 39°   Visibility: 10mi
Dew Point: 17°   Wind: 14mph
Humidity: 41%   Direction: 300°WNW
Pressure: 29.74"   Gusts: 24mph
Location:  40.9863°N, 74.383°W
Report Text: KCDW 251553Z AUTO 30012G21KT 10SM CLR 04/M08 A2974 RMK AO2 SLP079 T00391083 TSNO $
Loading
Personal Weather Stations






























Interactive Weather Map New forecast layout! Learn more

10-Day Weather Forecast

Advertisements
Track Severe Weather on mobile